Address 0x6d4c72d6b441f004295adca13b550fdf880ac994 2

Txn Hash Method
Block
From
To
Value [Txn Fee]
0xeca432ec08a49bce916a8b557757f3186a56c1becfd16d430b003a52a9e65b95Update Token URI264275012022-05-23 5:40:416 hrs 48 mins ago0x6d4c72d6b441f004295adca13b550fdf880ac994OUT 0xf7c8913df28b004f5c16dcc9ba021d03d76deef00 MATIC0.010558377529 27.500000078
0xf09e12d39cc72174808fbe094464cf78a07f7078e1dc52e945f0b8743312976aUpdate Token URI264274522022-05-23 5:36:356 hrs 53 mins ago0x6d4c72d6b441f004295adca13b550fdf880ac994OUT 0xf7c8913df28b004f5c16dcc9ba021d03d76deef00 MATIC0.00479926251 12.500000027
0xaedd9cde7c9d45170e479825684394bbdc9d4e9385af76f2168140f1cbb31c47Update Token URI264084582022-05-21 16:01:221 day 20 hrs ago0x6d4c72d6b441f004295adca13b550fdf880ac994OUT 0xf7c8913df28b004f5c16dcc9ba021d03d76deef00 MATIC0.010889558001 29.000000003
0x7e07e26fb1ecb681e308b5729404282a1570d3050be92a67a12f86976deb72f4Mint263359222022-05-16 12:37:116 days 23 hrs ago0x6d4c72d6b441f004295adca13b550fdf880ac994OUT 0xf7c8913df28b004f5c16dcc9ba021d03d76deef00 MATIC0.012518598552 18.500000078
0xbaf7e1ebd667b87a4075bae1530961d38429ba718bdfa00f3eb4fa98e19cf09cMint263170812022-05-14 14:42:598 days 21 hrs ago0x6d4c72d6b441f004295adca13b550fdf880ac994OUT 0xf7c8913df28b004f5c16dcc9ba021d03d76deef00 MATIC0.008031325038 12.50000006
0x7e35cae1fddecb057da4d5748b55c2d7368df50b9f3578585db526fbaa2a65afMint263161602022-05-14 12:33:408 days 23 hrs ago0x6d4c72d6b441f004295adca13b550fdf880ac994OUT 0x2fad792b99ca771cf9ebab6564ed70da5ef017e40 MATIC0.000186000808 7.679954098
0x5db8311491446300dc22db20e9469f47fa50b951a3837dc257c77f66db0f1125Transfer263160132022-05-14 12:09:129 days 20 mins ago0x6d4c72d6b441f004295adca13b550fdf880ac994OUT 0xf2fe21e854c838c66579f62ba0a60ca84367cd8f0 MATIC0.00015038298 2.91
0x3abf2130e9259443bfe5e906852a9c756e55dddc3fa6fd3c070fe0bd146a3db4Transfer263160032022-05-14 12:07:329 days 22 mins ago0x6d4c72d6b441f004295adca13b550fdf880ac994OUT 0xbe72d7fddb9d7969507bef69f439840957e0b47c0 MATIC0.000078978158 2.281682508
0x06e91d5b304091935163bca96297f0d92a224ede6b978f4411f44e731e250314Transfer263159762022-05-14 12:03:029 days 26 mins ago0x6d4c72d6b441f004295adca13b550fdf880ac994OUT 0xb0a2d971803e74843f158b22c4daec154f0385150 MATIC0.00012509605 2.425000008
0x9b80fa3f3eae8406c9d99675a6134c3bc42733d69e3446ac5561c423eb3541f5Transfer263159692022-05-14 12:01:529 days 27 mins ago0x6d4c72d6b441f004295adca13b550fdf880ac994OUT 0xb0040280a0c97f20c92c09513b8c6e6ff9aa86dc0 MATIC0.000107615818 2.08243002
0x0ba9a8e215e972f879a0b2818f511d6a73d23bdb50152b80409d46504fbffc57Mint263157952022-05-14 11:38:099 days 51 mins ago0x6d4c72d6b441f004295adca13b550fdf880ac994OUT 0xf7c8913df28b004f5c16dcc9ba021d03d76deef00 MATIC0.012747478008 19.84024742
0xd7123936dcbdce5b62d7802f943888d1f97812e88100be8f7d2de688973ff500Transfer263155992022-05-14 11:05:269 days 1 hr ago0x6d4c72d6b441f004295adca13b550fdf880ac994OUT 0xf2fe21e854c838c66579f62ba0a60ca84367cd8f0 MATIC0.00026518874 5.131559664
0x1a98fb9a509b32aea4f0d4e510068ceb9c34e05026b657a29e7a6d484162c9bfTransfer263155952022-05-14 11:04:469 days 1 hr ago0x6d4c72d6b441f004295adca13b550fdf880ac994OUT 0xb0040280a0c97f20c92c09513b8c6e6ff9aa86dc0 MATIC0.000273390453 5.290267695
0xbf4de0c6e5609d9d6b5e7af3f05ad9c9b778089272ba34345323271b540411f4Mint263155002022-05-14 10:55:499 days 1 hr ago0x6d4c72d6b441f004295adca13b550fdf880ac994OUT 0xf7c8913df28b004f5c16dcc9ba021d03d76deef00.015413996833965 MATIC0.050496597326 75.752243957
0xd140c13ce7a3ad914bd0db9b90ff23c7208f950f03c63ea5e2ad402657639af9Mint263154512022-05-14 10:51:239 days 1 hr ago0x6d4c72d6b441f004295adca13b550fdf880ac994OUT 0xf7c8913df28b004f5c16dcc9ba021d03d76deef00 MATIC0.04398270502 65.00000003
0xdf05ef67369684bbbbb54ff96ca12ac0bc1669e9772cc2af744b3772dcefdaa6Approve263154462022-05-14 10:50:339 days 1 hr ago0x6d4c72d6b441f004295adca13b550fdf880ac994OUT 0xb0040280a0c97f20c92c09513b8c6e6ff9aa86dc0 MATIC0.003467836408 74.818476983
0xc1a550fd42dca81ed1f26d02fb67ad66152dc90b6b35e93528b1e3b8f84d05a9Set Approval For...263154142022-05-14 10:45:139 days 1 hr ago0x6d4c72d6b441f004295adca13b550fdf880ac994OUT 0xf7c8913df28b004f5c16dcc9ba021d03d76deef00 MATIC0.00112625929 20.943919852
0xcda846058190467fa9c5847a3403ac83bde5969473395a5443a4fb64390ee890Mint263153932022-05-14 10:41:439 days 1 hr ago0x6d4c72d6b441f004295adca13b550fdf880ac994OUT 0xf7c8913df28b004f5c16dcc9ba021d03d76deef00 MATIC0.041470954543 62.516325239
0xc093d89b0084dd3f4fae2820bd360d58e8ad823b0cbc6cc3a22249b5482bf49cMint263153542022-05-14 10:35:129 days 1 hr ago0x6d4c72d6b441f004295adca13b550fdf880ac994OUT 0xf7c8913df28b004f5c16dcc9ba021d03d76deef00 MATIC0.031336523234 48.204696149
0xa5387300d772da25a2846d2410798dd70f9788aa66d0cb85f1d29448c2b47f01Mint263153202022-05-14 10:29:319 days 2 hrs ago0x6d4c72d6b441f004295adca13b550fdf880ac994OUT 0xf7c8913df28b004f5c16dcc9ba021d03d76deef00 MATIC0.039288974599 58.063353515
0x431a7b7d22fd2ba5d5a3efa0701c9f55f66aac51b0007a5ca8888f28c498e95cApprove263153152022-05-14 10:28:419 days 2 hrs ago0x6d4c72d6b441f004295adca13b550fdf880ac994OUT 0xf2fe21e854c838c66579f62ba0a60ca84367cd8f0 MATIC0.002691236435 58.063353518
0xc49dc17e1ceba3988b72267fa8dd7ceca8524cf5b1ece19014512de12dad7d2dMint263152782022-05-14 10:22:319 days 2 hrs ago0x6d4c72d6b441f004295adca13b550fdf880ac994OUT 0xf7c8913df28b004f5c16dcc9ba021d03d76deef00 MATIC0.048716996508 75.823411001
0x4662ff22f40b5d4557867d234004c34a418724fbad128f39e706c88e248a7618Transfer263152302022-05-14 10:17:159 days 2 hrs ago0x6e60591015793af1a7a28c6932ca0da5259c0b9c IN 0x6d4c72d6b441f004295adca13b550fdf880ac9941 MATIC0.000503808018 23.99085801
0x57a1fa80c91f3b9260bacc6615e06f630f265304dcba1d32b1d0fcfeacc2789dMint263137562022-05-14 6:45:469 days 5 hrs ago0x6d4c72d6b441f004295adca13b550fdf880ac994OUT 0xf7c8913df28b004f5c16dcc9ba021d03d76deef00 MATIC0.006103807019 9.50000003
0x714ef0a2542fddc54589de4382343b9630c75347b3ab748cd934edcea149875bSet Approval For...263074522022-05-13 15:37:279 days 20 hrs ago0x6d4c72d6b441f004295adca13b550fdf880ac994OUT 0x2fad792b99ca771cf9ebab6564ed70da5ef017e40 MATIC0.000441464595 9.562133852
[ Download CSV Export 
Latest 7 internal transactions
Parent Txn Hash Block From To Value
0xc4a8e7b2a8a675a2329d50b559efc60b1772dd699aba316c1c6ce99aa4d30dc8259946002022-04-19 6:12:3434 days 6 hrs ago 0x7f092e65c688a509737fcd8d0998dd12208f52970x6d4c72d6b441f004295adca13b550fdf880ac9940.2 MATIC
0x966cf9fbea0a817f29e78595b7a2f3526bd9ed92be6eda959d6dcb49f4c62355259938412022-04-19 4:58:1134 days 7 hrs ago 0x7f092e65c688a509737fcd8d0998dd12208f52970x6d4c72d6b441f004295adca13b550fdf880ac9940.2 MATIC
0x648cfc01040abc4fbcedb0d9e692cb29ed9a6990d518dc13ce80949cc2135189259554432022-04-16 7:05:1437 days 5 hrs ago 0x7f092e65c688a509737fcd8d0998dd12208f52970x6d4c72d6b441f004295adca13b550fdf880ac9940.5 MATIC
0xc45bfedceff6c0834e202f40b70794e8c9777ac4bb60660f7fd3a14da210b6dd259545602022-04-16 5:40:3837 days 6 hrs ago 0x7f092e65c688a509737fcd8d0998dd12208f52970x6d4c72d6b441f004295adca13b550fdf880ac9940.5 MATIC
0xaa17819ac907a5f2e9db43046819e25c6aae829be232d64334df9d819c619483259543562022-04-16 5:18:1037 days 7 hrs ago 0x7f092e65c688a509737fcd8d0998dd12208f52970x6d4c72d6b441f004295adca13b550fdf880ac9940.5 MATIC
0xb3e7cc5e84a0ac8b781dbc5eaa1791c0ca95f91eae8f80a8b5db6cd13bf5263a259542592022-04-16 5:10:0437 days 7 hrs ago 0x7f092e65c688a509737fcd8d0998dd12208f52970x6d4c72d6b441f004295adca13b550fdf880ac9940.5 MATIC
0xeb24ec798c02f0d938ab0b40a07208f608a1e5a589db485c8eb90bac46f5542c241586012022-01-22 18:19:07120 days 18 hrs ago 0x7f092e65c688a509737fcd8d0998dd12208f52970x6d4c72d6b441f004295adca13b550fdf880ac9940.5 MATIC
[ Download CSV Export 
Loading

Contract Name:
0 MATIC

Compiler Version
0

Optimization Enabled:
0 MATIC

Other Settings:
-NA-
Block Transaction Gas Used Reward
Age Block Fee Address BC Fee Address Voting Power Jailed Incoming
Block Uncle Number Difficulty Gas Used Reward
Loading